Defne-s — TCTI5 — position and weather

sailwx.info

Track history (hours):
 
Tides and Currents Weather Stations Pressure Air Temp Water Temp Dewpoint Dewpoint Depression Visibility Wind Speed Wind Dir Waves Ship Positions

Defne-s

Last reported at 2017-Mar-25 15:11 UTC. Time now 2017-Mar-27 06:32 UTC.
Position N 35°59' W 005°33'.

Length 109 m; draft 5.8 m.

Type: Tanker. MMSI: 271002639.

Date/timePositionNaut miles runAvg speedWind from/ knotsBaromVisibWave heightAir tempDewpointWater temp
2017-Mar-25 15:11N 35°59' W 005°33'811.0
2017-Mar-25 14:27N 36°00' W 005°23'7 8.0
2017-Mar-25 13:31N 35°54' W 005°18'0 0.0
2017-Mar-25 12:31N 35°54' W 005°18'0 0.0
2017-Mar-25 11:31N 35°54' W 005°18'0 0.0
2017-Mar-25 10:31N 35°54' W 005°18'2 2.0
2017-Mar-25 09:33N 35°56' W 005°17'22711.7
2017-Mar-24 14:04N 37°20' W 000°54'612.4
2017-Mar-24 13:33N 37°24' W 000°48'1412.3
2017-Mar-24 12:27N 37°33' W 000°35'1112.1
2017-Mar-24 11:33N 37°42' W 000°27'14712.9
2017-Mar-24 00:07N 39°42' E 001°23'712.5
2017-Mar-23 23:33N 39°47' E 001°28'1212.5
2017-Mar-23 22:33N 39°57' E 001°38'1212.5
2017-Mar-23 21:33N 40°07' E 001°48'1212.2
2017-Mar-23 20:33N 40°16' E 001°59'1212.1
2017-Mar-23 19:33N 40°26' E 002°09'1212.2
2017-Mar-23 18:33N 40°36' E 002°18'1212.3
2017-Mar-23 17:33N 40°45' E 002°28'1212.4
2017-Mar-23 16:33N 40°55' E 002°38'17912.4
2017-Mar-23 02:11N 43°21' E 004°58'5 0.2
2017-Mar-22 03:11N 43°24' E 004°54'1 2.3
2017-Mar-22 02:32N 43°25' E 004°56'0 0.0
2017-Mar-22 01:17N 43°25' E 004°56'0 0.0
2017-Mar-21 23:32N 43°25' E 004°56'0 0.0
2017-Mar-21 22:29N 43°25' E 004°56'0 0.0
2017-Mar-21 21:26N 43°25' E 004°56'0 0.0
2017-Mar-21 13:18N 43°25' E 004°56'5 6.6
2017-Mar-21 12:34N 43°21' E 004°59'1812.1
2017-Mar-21 11:04N 43°03' E 005°07'3 0.7
2017-Mar-21 07:04N 43°02' E 005°10'8811.8
2017-Mar-20 23:33N 43°13' E 007°10'1413.9
2017-Mar-20 22:33N 43°22' E 007°25'1413.7
2017-Mar-20 21:33N 43°30' E 007°41'1413.9
2017-Mar-20 20:33N 43°38' E 007°56'2914.3
2017-Mar-20 18:33N 43°57' E 008°26'1313.3
2017-Mar-20 17:33N 44°06' E 008°39'1313.1
2017-Mar-20 16:33N 44°15' E 008°52'9 9.0
2017-Mar-20 15:33N 44°24' E 008°55'0 0.0
2017-Mar-20 14:27N 44°24' E 008°55'0 0.0
2017-Mar-20 13:27N 44°24' E 008°55'0 0.0
2017-Mar-20 12:30N 44°24' E 008°55'0 0.0
2017-Mar-20 11:30N 44°24' E 008°55'0 0.0
2017-Mar-20 10:30N 44°24' E 008°55'0 0.0
2017-Mar-20 09:33N 44°24' E 008°55'0 0.0
2017-Mar-20 08:33N 44°24' E 008°55'0 0.0
2017-Mar-20 07:33N 44°24' E 008°55'0 0.0
2017-Mar-20 06:33N 44°24' E 008°55'0 0.0
2017-Mar-20 05:33N 44°24' E 008°55'0 0.0
2017-Mar-20 04:33N 44°24' E 008°55'0 0.0
2017-Mar-20 03:33N 44°24' E 008°55'0 0.0
2017-Mar-20 02:21N 44°24' E 008°55'0 0.0
2017-Mar-20 01:27N 44°24' E 008°55'0 0.0
2017-Mar-20 00:27N 44°24' E 008°55'0 0.0
2017-Mar-19 23:27N 44°24' E 008°55'0 0.0
2017-Mar-19 22:27N 44°24' E 008°55'0 0.0
2017-Mar-19 21:30N 44°24' E 008°55'0 0.0
2017-Mar-19 20:30N 44°24' E 008°55'0 0.0
2017-Mar-19 19:33N 44°24' E 008°55'0 0.0
2017-Mar-19 18:33N 44°24' E 008°55'0 0.0
2017-Mar-19 17:33N 44°24' E 008°55'0 0.0
2017-Mar-19 16:33N 44°24' E 008°55'3 3.3
2017-Mar-19 15:33N 44°22' E 008°58'1111.3
2017-Mar-19 14:33N 44°11' E 009°04'1212.0
2017-Mar-19 13:32N 43°60' E 009°09'1212.0
2017-Mar-19 12:33N 43°49' E 009°15'1212.1
2017-Mar-19 11:33N 43°37' E 009°21'1312.6
2017-Mar-19 10:33N 43°25' E 009°27'1211.8
2017-Mar-19 09:33N 43°14' E 009°33'26510.6
2017-Mar-18 08:33N 39°55' E 013°27'1311.9
2017-Mar-18 07:27N 39°46' E 013°39'8612.0
2017-Mar-18 00:17N 38°48' E 015°01'911.8
2017-Mar-17 23:30N 38°42' E 015°10'1112.0
2017-Mar-17 22:33N 38°34' E 015°20'1211.7
2017-Mar-17 21:32N 38°26' E 015°32'1212.0
2017-Mar-17 20:34N 38°18' E 015°42'1110.6
2017-Mar-17 19:33N 38°08' E 015°36'1010.3
2017-Mar-17 18:33N 37°58' E 015°36'1010.1
2017-Mar-17 17:33N 37°51' E 015°46'1211.6
2017-Mar-17 16:33N 37°45' E 015°59'1212.1
2017-Mar-17 15:33N 37°39' E 016°12'  
Track history (hours):
 
Tides and Currents Weather Stations Pressure Air Temp Water Temp Dewpoint Dewpoint Depression Visibility Wind Speed Wind Dir Waves Ship Positions

Defne-s

Last reported at 2017-Mar-25 15:11 UTC. Time now 2017-Mar-27 06:32 UTC.
Position N 35°59' W 005°33'.

Length 109 m; draft 5.8 m.

Type: Tanker. MMSI: 271002639.

Date/timePositionNaut miles runAvg speedWind from/ knotsBaromVisibWave heightAir tempDewpointWater temp
2017-Mar-25 15:11N 35°59' W 005°33'811.0
2017-Mar-25 14:27N 36°00' W 005°23'7 8.0
2017-Mar-25 13:31N 35°54' W 005°18'0 0.0
2017-Mar-25 12:31N 35°54' W 005°18'0 0.0
2017-Mar-25 11:31N 35°54' W 005°18'0 0.0
2017-Mar-25 10:31N 35°54' W 005°18'2 2.0
2017-Mar-25 09:33N 35°56' W 005°17'22711.7
2017-Mar-24 14:04N 37°20' W 000°54'612.4
2017-Mar-24 13:33N 37°24' W 000°48'1412.3
2017-Mar-24 12:27N 37°33' W 000°35'1112.1
2017-Mar-24 11:33N 37°42' W 000°27'14712.9
2017-Mar-24 00:07N 39°42' E 001°23'712.5
2017-Mar-23 23:33N 39°47' E 001°28'1212.5
2017-Mar-23 22:33N 39°57' E 001°38'1212.5
2017-Mar-23 21:33N 40°07' E 001°48'1212.2
2017-Mar-23 20:33N 40°16' E 001°59'1212.1
2017-Mar-23 19:33N 40°26' E 002°09'1212.2
2017-Mar-23 18:33N 40°36' E 002°18'1212.3
2017-Mar-23 17:33N 40°45' E 002°28'1212.4
2017-Mar-23 16:33N 40°55' E 002°38'17912.4
2017-Mar-23 02:11N 43°21' E 004°58'5 0.2
2017-Mar-22 03:11N 43°24' E 004°54'1 2.3
2017-Mar-22 02:32N 43°25' E 004°56'0 0.0
2017-Mar-22 01:17N 43°25' E 004°56'0 0.0
2017-Mar-21 23:32N 43°25' E 004°56'0 0.0
2017-Mar-21 22:29N 43°25' E 004°56'0 0.0
2017-Mar-21 21:26N 43°25' E 004°56'0 0.0
2017-Mar-21 13:18N 43°25' E 004°56'5 6.6
2017-Mar-21 12:34N 43°21' E 004°59'1812.1
2017-Mar-21 11:04N 43°03' E 005°07'3 0.7
2017-Mar-21 07:04N 43°02' E 005°10'8811.8
2017-Mar-20 23:33N 43°13' E 007°10'1413.9
2017-Mar-20 22:33N 43°22' E 007°25'1413.7
2017-Mar-20 21:33N 43°30' E 007°41'1413.9
2017-Mar-20 20:33N 43°38' E 007°56'2914.3
2017-Mar-20 18:33N 43°57' E 008°26'1313.3
2017-Mar-20 17:33N 44°06' E 008°39'1313.1
2017-Mar-20 16:33N 44°15' E 008°52'9 9.0
2017-Mar-20 15:33N 44°24' E 008°55'0 0.0
2017-Mar-20 14:27N 44°24' E 008°55'0 0.0
2017-Mar-20 13:27N 44°24' E 008°55'0 0.0
2017-Mar-20 12:30N 44°24' E 008°55'0 0.0
2017-Mar-20 11:30N 44°24' E 008°55'0 0.0
2017-Mar-20 10:30N 44°24' E 008°55'0 0.0
2017-Mar-20 09:33N 44°24' E 008°55'0 0.0
2017-Mar-20 08:33N 44°24' E 008°55'0 0.0
2017-Mar-20 07:33N 44°24' E 008°55'0 0.0
2017-Mar-20 06:33N 44°24' E 008°55'0 0.0
2017-Mar-20 05:33N 44°24' E 008°55'0 0.0
2017-Mar-20 04:33N 44°24' E 008°55'0 0.0
2017-Mar-20 03:33N 44°24' E 008°55'0 0.0
2017-Mar-20 02:21N 44°24' E 008°55'0 0.0
2017-Mar-20 01:27N 44°24' E 008°55'0 0.0
2017-Mar-20 00:27N 44°24' E 008°55'0 0.0
2017-Mar-19 23:27N 44°24' E 008°55'0 0.0
2017-Mar-19 22:27N 44°24' E 008°55'0 0.0
2017-Mar-19 21:30N 44°24' E 008°55'0 0.0
2017-Mar-19 20:30N 44°24' E 008°55'0 0.0
2017-Mar-19 19:33N 44°24' E 008°55'0 0.0
2017-Mar-19 18:33N 44°24' E 008°55'0 0.0
2017-Mar-19 17:33N 44°24' E 008°55'0 0.0
2017-Mar-19 16:33N 44°24' E 008°55'3 3.3
2017-Mar-19 15:33N 44°22' E 008°58'1111.3
2017-Mar-19 14:33N 44°11' E 009°04'1212.0
2017-Mar-19 13:32N 43°60' E 009°09'1212.0
2017-Mar-19 12:33N 43°49' E 009°15'1212.1
2017-Mar-19 11:33N 43°37' E 009°21'1312.6
2017-Mar-19 10:33N 43°25' E 009°27'1211.8
2017-Mar-19 09:33N 43°14' E 009°33'26510.6
2017-Mar-18 08:33N 39°55' E 013°27'1311.9
2017-Mar-18 07:27N 39°46' E 013°39'8612.0
2017-Mar-18 00:17N 38°48' E 015°01'911.8
2017-Mar-17 23:30N 38°42' E 015°10'1112.0
2017-Mar-17 22:33N 38°34' E 015°20'1211.7
2017-Mar-17 21:32N 38°26' E 015°32'1212.0
2017-Mar-17 20:34N 38°18' E 015°42'1110.6
2017-Mar-17 19:33N 38°08' E 015°36'1010.3
2017-Mar-17 18:33N 37°58' E 015°36'1010.1
2017-Mar-17 17:33N 37°51' E 015°46'1211.6
2017-Mar-17 16:33N 37°45' E 015°59'1212.1
2017-Mar-17 15:33N 37°39' E 016°12'  

Dump ship's entire track history